createdAt,value
2018-09-13T00:01:56.293Z,67.87
2018-09-13T00:04:24.081Z,67.23
2018-09-13T00:06:52.167Z,67.04
2018-09-13T00:09:19.996Z,67.27
2018-09-13T00:11:47.860Z,67.27
2018-09-13T00:14:15.679Z,67.59
2018-09-13T00:16:43.443Z,67.92
2018-09-13T00:19:11.263Z,66.61
2018-09-13T00:21:39.064Z,67.93
2018-09-13T00:24:06.858Z,67.62
2018-09-13T00:26:34.684Z,66.68
2018-09-13T00:29:02.526Z,68.11
2018-09-13T00:31:30.312Z,66.97
2018-09-13T00:33:58.142Z,68.35
2018-09-13T00:36:25.960Z,68.63
2018-09-13T00:38:53.756Z,68.88
2018-09-13T00:41:21.571Z,66.90
2018-09-13T00:43:49.430Z,67.78
2018-09-13T00:46:17.258Z,68.93
2018-09-13T00:48:45.091Z,68.44
2018-09-13T00:51:12.991Z,69.48
2018-09-13T00:53:40.781Z,68.68
2018-09-13T00:56:08.603Z,68.36
2018-09-13T00:58:36.485Z,67.48
2018-09-13T01:01:04.272Z,66.22
2018-09-13T01:03:32.156Z,69.66
2018-09-13T01:05:59.952Z,68.70
2018-09-13T01:08:27.744Z,68.49
2018-09-13T01:10:55.578Z,68.36
2018-09-13T01:13:23.435Z,67.82
2018-09-13T01:15:51.446Z,67.47
2018-09-13T01:18:19.272Z,68.66
2018-09-13T01:20:47.114Z,67.04
2018-09-13T01:23:14.924Z,69.08
2018-09-13T01:25:42.746Z,69.46
2018-09-13T01:28:10.584Z,71.25
2018-09-13T01:30:38.432Z,69.81
2018-09-13T01:33:06.316Z,71.57
2018-09-13T01:35:34.096Z,70.31
2018-09-13T01:38:01.932Z,68.54
2018-09-13T01:40:29.779Z,71.32
2018-09-13T01:42:57.584Z,69.56
2018-09-13T01:45:25.431Z,68.72
2018-09-13T01:47:53.275Z,68.37
2018-09-13T01:50:21.096Z,69.94
2018-09-13T01:52:48.935Z,70.79
2018-09-13T01:55:16.803Z,69.56
2018-09-13T01:57:44.687Z,69.62
2018-09-13T02:00:12.509Z,70.91
2018-09-13T02:02:40.308Z,69.99
2018-09-13T02:05:08.170Z,70.41
2018-09-13T02:07:36.000Z,70.19
2018-09-13T02:10:03.983Z,70.00
2018-09-13T02:12:31.837Z,70.74
2018-09-13T02:14:59.667Z,72.12
2018-09-13T02:17:27.528Z,71.96
2018-09-13T02:19:55.316Z,71.81
2018-09-13T02:22:23.133Z,68.11
2018-09-13T02:24:50.992Z,69.59
2018-09-13T02:27:18.819Z,70.75
2018-09-13T02:29:46.620Z,69.84
2018-09-13T02:32:18.245Z,68.48
2018-09-13T02:34:46.156Z,70.33
2018-09-13T02:37:13.948Z,69.33
2018-09-13T02:39:41.797Z,70.86
2018-09-13T02:42:09.677Z,69.31
2018-09-13T02:44:37.485Z,70.78
2018-09-13T02:47:05.304Z,71.52
2018-09-13T02:49:33.142Z,71.16
2018-09-13T02:52:00.974Z,70.64
2018-09-13T02:54:28.900Z,71.69
2018-09-13T02:56:56.707Z,70.30
2018-09-13T02:59:24.580Z,70.79
2018-09-13T03:01:52.512Z,70.07
2018-09-13T03:04:20.272Z,70.07
2018-09-13T03:06:48.152Z,70.83
2018-09-13T03:09:15.947Z,70.58
2018-09-13T03:11:44.031Z,70.25
2018-09-13T03:14:14.154Z,69.80
2018-09-13T03:16:41.970Z,70.91
2018-09-13T03:19:09.924Z,70.03
2018-09-13T03:21:37.732Z,72.19
2018-09-13T03:24:05.546Z,71.98
2018-09-13T03:26:33.545Z,71.37
2018-09-13T03:29:01.481Z,71.25
2018-09-13T03:31:29.531Z,72.79
2018-09-13T03:33:57.359Z,71.96
2018-09-13T03:36:25.111Z,70.39
2018-09-13T03:38:52.983Z,71.32
2018-09-13T03:41:20.827Z,71.61
2018-09-13T03:43:48.729Z,71.64
2018-09-13T03:46:16.513Z,71.05
2018-09-13T03:48:44.319Z,71.42
2018-09-13T03:51:12.106Z,72.64
2018-09-13T03:53:39.950Z,71.29
2018-09-13T03:56:07.883Z,71.12
2018-09-13T03:58:35.743Z,71.69
2018-09-13T04:01:03.637Z,71.89
2018-09-13T04:03:31.591Z,70.46
2018-09-13T04:05:59.434Z,72.76
2018-09-13T04:08:27.806Z,71.85
2018-09-13T04:10:55.581Z,70.54
2018-09-13T04:13:23.510Z,71.30
2018-09-13T04:15:51.276Z,70.59
2018-09-13T04:18:22.403Z,70.61
2018-09-13T04:20:50.344Z,71.70
2018-09-13T04:23:18.187Z,71.98
2018-09-13T04:25:46.060Z,72.99
2018-09-13T04:28:13.923Z,72.21
2018-09-13T04:30:41.727Z,72.17
2018-09-13T04:33:09.551Z,72.63
2018-09-13T04:35:37.460Z,72.00
2018-09-13T04:38:05.524Z,72.21
2018-09-13T04:40:33.351Z,71.96
2018-09-13T04:43:01.250Z,72.49
2018-09-13T04:45:29.127Z,72.86
2018-09-13T04:47:57.023Z,72.58
2018-09-13T04:50:24.900Z,71.64
2018-09-13T04:52:54.187Z,72.24
2018-09-13T04:55:21.931Z,70.87
2018-09-13T04:57:49.970Z,69.62
2018-09-13T05:00:26.918Z,69.98
2018-09-13T05:02:55.414Z,69.67
2018-09-13T05:05:23.581Z,70.30
2018-09-13T05:07:57.094Z,70.57
2018-09-13T05:10:24.992Z,70.78
2018-09-13T05:12:56.045Z,70.97
2018-09-13T05:15:28.548Z,72.19
2018-09-13T05:17:58.402Z,72.14
2018-09-13T05:20:26.224Z,72.38
2018-09-13T05:22:54.208Z,70.89
2018-09-13T05:25:22.355Z,70.61
2018-09-13T05:27:50.265Z,70.46
2018-09-13T05:30:18.266Z,71.40
2018-09-13T05:32:48.483Z,71.08
2018-09-13T05:35:16.332Z,71.38
2018-09-13T05:37:44.400Z,69.47
2018-09-13T05:40:13.551Z,70.71
2018-09-13T05:42:46.557Z,71.00
2018-09-13T05:45:14.467Z,71.63
2018-09-13T05:47:42.291Z,70.90
2018-09-13T05:50:10.145Z,71.67
2018-09-13T05:52:38.084Z,71.17
2018-09-13T05:55:06.039Z,70.95
2018-09-13T05:57:33.948Z,70.19
2018-09-13T06:00:01.756Z,70.59
2018-09-13T06:02:29.510Z,70.63
2018-09-13T06:04:57.268Z,70.05
2018-09-13T06:07:25.163Z,70.83
2018-09-13T06:09:52.968Z,70.09
2018-09-13T06:12:20.756Z,70.67
2018-09-13T06:14:48.529Z,70.44
2018-09-13T06:17:16.336Z,69.60
2018-09-13T06:19:44.198Z,70.36
2018-09-13T06:22:12.084Z,68.97
2018-09-13T06:24:40.030Z,68.66
2018-09-13T06:27:07.803Z,69.68
2018-09-13T06:29:35.929Z,68.27
2018-09-13T06:32:03.810Z,68.42
2018-09-13T06:34:31.632Z,69.40
2018-09-13T06:36:59.479Z,68.49
2018-09-13T06:39:27.270Z,69.37
2018-09-13T06:41:55.091Z,68.13
2018-09-13T06:44:22.864Z,68.76
2018-09-13T06:46:50.631Z,67.14
2018-09-13T06:49:18.518Z,68.44
2018-09-13T06:51:46.381Z,67.76
2018-09-13T06:54:14.189Z,66.97
2018-09-13T06:56:42.123Z,66.54
2018-09-13T06:59:09.989Z,67.20
2018-09-13T07:01:37.868Z,66.58
2018-09-13T07:04:05.708Z,66.19
2018-09-13T07:06:33.522Z,65.99
2018-09-13T07:09:05.232Z,65.36
2018-09-13T07:11:33.264Z,65.57
2018-09-13T07:14:01.114Z,65.10
2018-09-13T07:16:28.887Z,64.46
2018-09-13T07:18:56.675Z,63.96
2018-09-13T07:21:24.504Z,63.96
2018-09-13T07:23:52.421Z,63.92
2018-09-13T07:26:20.204Z,63.24
2018-09-13T07:28:48.025Z,63.12
2018-09-13T07:31:15.880Z,62.79
2018-09-13T07:33:43.755Z,62.84
2018-09-13T07:36:11.575Z,62.04
2018-09-13T07:38:39.427Z,61.76
2018-09-13T07:41:07.252Z,61.60
2018-09-13T07:43:35.059Z,61.65
2018-09-13T07:46:02.848Z,61.21
2018-09-13T07:48:30.955Z,61.19
2018-09-13T07:50:58.764Z,61.37
2018-09-13T07:53:26.608Z,60.97
2018-09-13T07:55:54.399Z,61.03
2018-09-13T07:58:22.208Z,60.62
2018-09-13T08:00:50.228Z,60.70
2018-09-13T08:03:18.096Z,60.03
2018-09-13T08:05:45.923Z,59.83
2018-09-13T08:08:13.756Z,59.60
2018-09-13T08:10:41.627Z,59.67
2018-09-13T08:13:09.388Z,58.13
2018-09-13T08:15:37.260Z,59.15
2018-09-13T08:18:05.100Z,57.48
2018-09-13T08:20:32.984Z,57.40
2018-09-13T08:23:00.812Z,56.44
2018-09-13T08:25:28.676Z,56.84
2018-09-13T08:27:56.435Z,55.38
2018-09-13T08:30:24.571Z,55.44
2018-09-13T08:32:52.391Z,55.45
2018-09-13T08:35:20.199Z,56.02
2018-09-13T08:37:47.992Z,54.28
2018-09-13T08:40:15.894Z,54.30
2018-09-13T08:42:43.648Z,53.41
2018-09-13T08:45:11.531Z,53.56
2018-09-13T08:47:39.411Z,53.33
2018-09-13T08:50:07.215Z,52.89
2018-09-13T08:52:35.007Z,51.98
2018-09-13T08:55:02.886Z,52.64
2018-09-13T08:57:30.671Z,51.28
2018-09-13T08:59:58.491Z,51.80
2018-09-13T09:02:26.292Z,52.15
2018-09-13T09:04:54.072Z,52.03
2018-09-13T09:07:21.907Z,52.65
2018-09-13T09:09:49.736Z,52.75
2018-09-13T09:12:17.599Z,52.76
2018-09-13T09:14:45.443Z,51.99
2018-09-13T09:17:13.247Z,52.82
2018-09-13T09:19:41.112Z,52.02
2018-09-13T09:22:08.918Z,52.92
2018-09-13T09:24:36.705Z,52.19
2018-09-13T09:27:04.588Z,52.39
2018-09-13T09:29:32.391Z,53.14
2018-09-13T09:32:00.263Z,53.04
2018-09-13T09:34:28.115Z,53.22
2018-09-13T09:36:55.923Z,52.73
2018-09-13T09:39:23.731Z,53.59
2018-09-13T09:41:51.544Z,52.75
2018-09-13T09:44:19.410Z,53.27
2018-09-13T09:46:47.205Z,53.20
2018-09-13T09:49:15.017Z,53.15
2018-09-13T09:51:42.890Z,53.17
2018-09-13T09:54:10.679Z,52.74
2018-09-13T09:56:38.596Z,52.53
2018-09-13T09:59:06.447Z,53.16
2018-09-13T10:01:37.556Z,52.92
2018-09-13T10:04:08.988Z,52.68
2018-09-13T10:06:36.909Z,53.31
2018-09-13T10:09:06.993Z,53.79
2018-09-13T10:11:35.197Z,53.64
2018-09-13T10:14:03.108Z,53.65
2018-09-13T10:16:36.835Z,53.50
2018-09-13T10:19:10.459Z,52.98
2018-09-13T10:21:43.947Z,54.96
2018-09-13T10:24:17.432Z,55.67
2018-09-13T10:26:53.679Z,59.75
2018-09-13T10:29:27.394Z,58.63
2018-09-13T10:32:01.060Z,57.93
2018-09-13T10:34:34.712Z,56.44
2018-09-13T10:37:08.289Z,56.49
2018-09-13T10:39:41.796Z,55.88
2018-09-13T10:42:15.293Z,55.31
2018-09-13T10:44:48.857Z,54.30
2018-09-13T10:47:22.335Z,54.12
2018-09-13T10:50:04.604Z,53.24
2018-09-13T10:52:35.100Z,53.28
2018-09-13T10:55:02.948Z,52.50
2018-09-13T10:57:36.511Z,52.74
2018-09-13T11:00:04.438Z,51.92
2018-09-13T11:02:32.273Z,51.76
2018-09-13T11:05:00.112Z,51.63
2018-09-13T11:07:27.921Z,51.71
2018-09-13T11:09:55.832Z,51.58
2018-09-13T11:12:28.408Z,51.44
2018-09-13T11:15:02.924Z,51.21
2018-09-13T11:17:31.032Z,51.13
2018-09-13T11:19:58.840Z,50.82
2018-09-13T11:22:26.655Z,51.30
2018-09-13T11:24:54.514Z,51.25
2018-09-13T11:27:22.347Z,53.20
2018-09-13T11:29:50.158Z,52.17
2018-09-13T11:32:18.043Z,51.17
2018-09-13T11:34:45.849Z,50.93
2018-09-13T11:37:13.828Z,51.11
2018-09-13T11:39:41.658Z,50.31
2018-09-13T11:42:09.603Z,49.62
2018-09-13T11:44:37.461Z,49.30
2018-09-13T11:47:05.907Z,49.61
2018-09-13T11:49:33.723Z,49.14
2018-09-13T11:52:01.615Z,48.93
2018-09-13T11:54:29.418Z,48.17
2018-09-13T11:56:57.227Z,47.80
2018-09-13T11:59:25.072Z,47.19
2018-09-13T12:01:52.856Z,48.06
2018-09-13T12:04:20.644Z,47.46
2018-09-13T12:06:48.515Z,47.09
2018-09-13T12:09:16.331Z,46.65
2018-09-13T12:11:44.200Z,46.31
2018-09-13T12:14:12.172Z,46.10
2018-09-13T12:16:39.950Z,45.26
2018-09-13T12:19:07.833Z,45.71
2018-09-13T12:21:35.679Z,45.83
2018-09-13T12:24:03.779Z,45.69
2018-09-13T12:26:31.848Z,45.13
2018-09-13T12:28:59.732Z,44.31
2018-09-13T12:31:27.599Z,44.52
2018-09-13T12:33:55.383Z,44.92
2018-09-13T12:36:23.223Z,45.33
2018-09-13T12:38:51.024Z,45.88
2018-09-13T12:41:18.904Z,45.07
2018-09-13T12:43:46.723Z,46.11
2018-09-13T12:46:14.545Z,45.20
2018-09-13T12:48:42.404Z,45.79
2018-09-13T12:51:10.253Z,45.55
2018-09-13T12:53:38.105Z,45.61
2018-09-13T12:56:05.983Z,45.01
2018-09-13T12:58:33.801Z,45.74
2018-09-13T13:01:01.600Z,45.40
2018-09-13T13:03:29.647Z,45.29
2018-09-13T13:05:57.497Z,45.63
2018-09-13T13:08:25.500Z,45.43
2018-09-13T13:10:53.328Z,45.17
2018-09-13T13:13:21.119Z,45.06
2018-09-13T13:15:48.882Z,45.12
2018-09-13T13:18:16.716Z,44.88
2018-09-13T13:20:44.548Z,44.56
2018-09-13T13:23:12.343Z,45.03
2018-09-13T13:25:40.139Z,45.76
2018-09-13T13:28:08.003Z,46.86
2018-09-13T13:30:35.841Z,46.59
2018-09-13T13:33:03.667Z,46.41
2018-09-13T13:35:31.527Z,46.22
2018-09-13T13:37:59.380Z,46.70
2018-09-13T13:40:27.159Z,47.97
2018-09-13T13:42:54.980Z,47.15
2018-09-13T13:45:22.794Z,48.78
2018-09-13T13:47:50.667Z,49.55
2018-09-13T13:50:18.472Z,49.51
2018-09-13T13:52:46.264Z,50.30
2018-09-13T13:55:14.040Z,50.87
2018-09-13T13:57:41.903Z,51.54
2018-09-13T14:00:10.627Z,51.09
2018-09-13T14:02:38.617Z,52.25
2018-09-13T14:05:06.581Z,52.40
2018-09-13T14:07:36.196Z,52.67
2018-09-13T14:10:04.113Z,52.91
2018-09-13T14:12:31.927Z,52.28
2018-09-13T14:14:59.713Z,51.75
2018-09-13T14:17:27.497Z,50.60
2018-09-13T14:19:55.411Z,50.86
2018-09-13T14:22:23.273Z,50.35
2018-09-13T14:24:51.023Z,50.78
2018-09-13T14:27:18.905Z,51.07
2018-09-13T14:29:46.800Z,50.77
2018-09-13T14:32:14.587Z,50.50
2018-09-13T14:34:42.456Z,50.18
2018-09-13T14:37:10.295Z,49.99
2018-09-13T14:39:38.410Z,49.54
2018-09-13T14:42:06.368Z,49.44
2018-09-13T14:44:34.163Z,49.56
2018-09-13T14:47:02.015Z,48.90
2018-09-13T14:49:29.753Z,49.10
2018-09-13T14:51:58.925Z,48.48
2018-09-13T14:54:26.660Z,48.46
2018-09-13T14:56:55.467Z,48.78
2018-09-13T14:59:23.317Z,48.68
2018-09-13T15:01:51.119Z,48.56
2018-09-13T15:04:18.913Z,48.46
2018-09-13T15:06:47.772Z,48.15
2018-09-13T15:09:15.504Z,48.21
2018-09-13T15:11:43.343Z,48.01
2018-09-13T15:14:11.139Z,48.21
2018-09-13T15:16:38.955Z,48.14
2018-09-13T15:19:06.780Z,48.20
2018-09-13T15:21:34.593Z,48.76
2018-09-13T15:24:02.409Z,48.63
2018-09-13T15:26:30.304Z,48.61
2018-09-13T15:28:58.067Z,48.67
2018-09-13T15:31:25.965Z,48.84
2018-09-13T15:33:53.810Z,49.16
2018-09-13T15:36:21.634Z,49.27
2018-09-13T15:38:49.484Z,49.20
2018-09-13T15:41:17.272Z,49.06
2018-09-13T15:43:45.300Z,49.44
2018-09-13T15:46:13.161Z,49.35
2018-09-13T15:48:40.923Z,49.62
2018-09-13T15:51:08.758Z,49.68
2018-09-13T15:53:36.687Z,50.12
2018-09-13T15:56:04.535Z,49.72
2018-09-13T15:58:32.396Z,49.98
2018-09-13T16:01:00.417Z,50.75
2018-09-13T16:03:28.191Z,50.84
2018-09-13T16:05:55.977Z,50.33
2018-09-13T16:08:23.787Z,50.68
2018-09-13T16:10:51.597Z,50.68
2018-09-13T16:13:19.387Z,51.24
2018-09-13T16:15:47.242Z,51.56
2018-09-13T16:18:15.018Z,50.70
2018-09-13T16:20:43.295Z,50.67
2018-09-13T16:23:11.288Z,51.13
2018-09-13T16:25:39.159Z,51.38
2018-09-13T16:28:07.038Z,51.89
2018-09-13T16:30:34.921Z,51.61
2018-09-13T16:33:02.835Z,52.06
2018-09-13T16:35:30.705Z,52.79
2018-09-13T16:38:05.619Z,52.42
2018-09-13T16:40:39.218Z,51.58
2018-09-13T16:43:13.108Z,51.46
2018-09-13T16:45:40.944Z,51.49
2018-09-13T16:48:08.775Z,53.23
2018-09-13T16:50:36.624Z,52.49
2018-09-13T16:53:04.746Z,52.85
2018-09-13T16:55:32.571Z,53.05
2018-09-13T16:58:00.583Z,53.97
2018-09-13T17:00:28.408Z,53.09
2018-09-13T17:02:56.228Z,52.93
2018-09-13T17:05:24.152Z,52.08
2018-09-13T17:07:51.943Z,52.93
2018-09-13T17:10:19.717Z,53.25
2018-09-13T17:12:47.627Z,54.09
2018-09-13T17:15:15.464Z,54.67
2018-09-13T17:17:43.271Z,53.46
2018-09-13T17:20:11.245Z,52.99
2018-09-13T17:22:39.059Z,54.02
2018-09-13T17:25:06.936Z,53.84
2018-09-13T17:27:34.779Z,54.98
2018-09-13T17:30:02.847Z,55.15
2018-09-13T17:32:30.644Z,54.05
2018-09-13T17:34:58.403Z,54.82
2018-09-13T17:37:26.200Z,54.95
2018-09-13T17:39:54.048Z,53.99
2018-09-13T17:42:21.816Z,54.88
2018-09-13T17:44:49.665Z,55.61
2018-09-13T17:47:17.517Z,54.66
2018-09-13T17:49:45.459Z,55.12
2018-09-13T17:52:13.212Z,56.17
2018-09-13T17:54:40.995Z,55.73
2018-09-13T17:57:08.864Z,56.17
2018-09-13T17:59:36.656Z,56.39
2018-09-13T18:02:04.484Z,55.95
2018-09-13T18:04:32.376Z,55.94
2018-09-13T18:07:00.196Z,55.71
2018-09-13T18:09:28.005Z,55.53
2018-09-13T18:11:55.932Z,55.56
2018-09-13T18:14:23.724Z,55.06
2018-09-13T18:16:51.569Z,55.54
2018-09-13T18:19:19.388Z,55.88
2018-09-13T18:21:47.235Z,55.78
2018-09-13T18:24:15.130Z,57.15
2018-09-13T18:26:43.019Z,57.61
2018-09-13T18:29:10.781Z,56.68
2018-09-13T18:31:38.604Z,57.79
2018-09-13T18:34:06.854Z,56.67
2018-09-13T18:36:34.757Z,57.36
2018-09-13T18:39:03.374Z,56.64
2018-09-13T18:41:32.002Z,56.83
2018-09-13T18:43:59.782Z,58.14
2018-09-13T18:46:27.588Z,58.78
2018-09-13T18:48:55.555Z,58.40
2018-09-13T18:51:23.397Z,58.78
2018-09-13T18:54:01.191Z,58.93
2018-09-13T18:56:33.526Z,57.76
2018-09-13T18:59:05.927Z,58.44
2018-09-13T19:01:33.775Z,59.24
2018-09-13T19:04:01.837Z,57.66
2018-09-13T19:06:37.710Z,58.75
2018-09-13T19:09:08.139Z,58.89
2018-09-13T19:11:36.056Z,58.50
2018-09-13T19:14:04.140Z,58.35
2018-09-13T19:16:31.908Z,59.62
2018-09-13T19:18:59.739Z,58.69
2018-09-13T19:21:27.563Z,59.21
2018-09-13T19:23:55.395Z,59.67
2018-09-13T19:26:23.399Z,58.96
2018-09-13T19:28:51.287Z,58.92
2018-09-13T19:31:19.085Z,59.97
2018-09-13T19:33:46.915Z,58.78
2018-09-13T19:36:14.991Z,61.04
2018-09-13T19:38:42.876Z,59.80
2018-09-13T19:41:11.143Z,61.25
2018-09-13T19:43:39.272Z,61.51
2018-09-13T19:46:07.347Z,61.27
2018-09-13T19:48:35.878Z,60.49
2018-09-13T19:51:03.929Z,61.55
2018-09-13T19:53:31.555Z,61.32
2018-09-13T19:56:00.422Z,61.60
2018-09-13T19:58:28.702Z,61.47
2018-09-13T20:00:56.643Z,61.56
2018-09-13T20:03:24.453Z,60.71
2018-09-13T20:05:52.525Z,63.69
2018-09-13T20:08:20.296Z,61.31
2018-09-13T20:10:48.064Z,62.93
2018-09-13T20:13:15.924Z,62.42
2018-09-13T20:15:43.927Z,62.60
2018-09-13T20:18:14.625Z,62.85
2018-09-13T20:20:50.179Z,62.40
2018-09-13T20:23:23.183Z,62.92
2018-09-13T20:25:56.452Z,63.84
2018-09-13T20:28:27.588Z,64.60
2018-09-13T20:31:02.594Z,63.72
2018-09-13T20:33:35.320Z,64.26
2018-09-13T20:36:06.632Z,63.84
2018-09-13T20:38:44.510Z,63.77
2018-09-13T20:41:21.413Z,63.74
2018-09-13T20:43:49.243Z,63.69
2018-09-13T20:46:17.052Z,63.76
2018-09-13T20:48:49.033Z,64.37
2018-09-13T20:51:18.581Z,62.84
2018-09-13T20:53:46.412Z,65.03
2018-09-13T20:56:14.367Z,65.53
2018-09-13T20:58:42.164Z,65.25
2018-09-13T21:01:19.047Z,66.25
2018-09-13T21:03:47.259Z,65.95
2018-09-13T21:06:15.099Z,67.05
2018-09-13T21:08:42.985Z,65.64
2018-09-13T21:11:10.678Z,66.26
2018-09-13T21:13:38.459Z,67.12
2018-09-13T21:16:06.738Z,67.35
2018-09-13T21:18:34.592Z,66.79
2018-09-13T21:21:02.365Z,67.55
2018-09-13T21:23:30.183Z,66.92
2018-09-13T21:25:58.004Z,67.86
2018-09-13T21:28:25.889Z,68.03
2018-09-13T21:30:53.759Z,67.93
2018-09-13T21:33:21.614Z,69.58
2018-09-13T21:35:49.407Z,68.22
2018-09-13T21:38:17.211Z,67.81
2018-09-13T21:40:45.062Z,71.25
2018-09-13T21:43:12.904Z,71.14
2018-09-13T21:45:40.724Z,71.59
2018-09-13T21:48:08.426Z,70.08
2018-09-13T21:50:36.355Z,71.52
2018-09-13T21:53:04.155Z,70.29
2018-09-13T21:55:32.019Z,71.37
2018-09-13T21:57:59.839Z,70.41
2018-09-13T22:00:27.677Z,70.06
2018-09-13T22:02:55.508Z,70.48
2018-09-13T22:05:23.322Z,74.24
2018-09-13T22:07:51.159Z,74.54
2018-09-13T22:10:18.975Z,74.36
2018-09-13T22:12:46.747Z,73.19
2018-09-13T22:15:14.540Z,76.69
2018-09-13T22:17:42.368Z,73.81
2018-09-13T22:20:10.208Z,75.92
2018-09-13T22:22:38.051Z,76.10
2018-09-13T22:25:06.345Z,74.26
2018-09-13T22:27:34.317Z,76.07
2018-09-13T22:30:02.725Z,76.72
2018-09-13T22:32:30.639Z,76.52
2018-09-13T22:34:58.590Z,76.47
2018-09-13T22:37:26.471Z,78.71
2018-09-13T22:39:54.348Z,79.73
2018-09-13T22:42:22.204Z,79.17
2018-09-13T22:44:50.109Z,80.14
2018-09-13T22:47:18.049Z,78.70
2018-09-13T22:49:45.808Z,78.43
2018-09-13T22:52:13.588Z,78.01
2018-09-13T22:54:41.432Z,78.40
2018-09-13T22:57:09.315Z,81.01
2018-09-13T22:59:37.188Z,80.94
2018-09-13T23:02:05.064Z,80.54
2018-09-13T23:04:35.514Z,80.84
2018-09-13T23:07:03.488Z,79.70
2018-09-13T23:09:31.343Z,78.25
2018-09-13T23:11:59.180Z,80.83
2018-09-13T23:14:26.960Z,80.10
2018-09-13T23:16:54.726Z,81.49
2018-09-13T23:19:22.561Z,80.36
2018-09-13T23:21:50.355Z,81.40
2018-09-13T23:24:18.234Z,82.00
2018-09-13T23:26:46.045Z,82.58
2018-09-13T23:29:13.903Z,82.18
2018-09-13T23:31:41.737Z,82.67
2018-09-13T23:34:09.551Z,79.47
2018-09-13T23:36:37.340Z,80.06
2018-09-13T23:39:08.449Z,79.46
2018-09-13T23:41:36.830Z,78.99
2018-09-13T23:44:04.631Z,78.76
2018-09-13T23:46:35.309Z,81.54
2018-09-13T23:49:03.394Z,82.87
2018-09-13T23:51:31.279Z,81.22
2018-09-13T23:53:59.035Z,82.03
2018-09-13T23:56:26.891Z,81.32
2018-09-13T23:58:54.681Z,81.77
